createdAt,value
2023-01-20T00:00:21.055Z,1.95
2023-01-20T00:05:51.387Z,5.90
2023-01-20T00:11:13.215Z,4.35
2023-01-20T00:16:34.951Z,2.63
2023-01-20T00:21:56.684Z,2.63
2023-01-20T00:27:20.418Z,5.75
2023-01-20T00:32:45.541Z,3.67
2023-01-20T00:38:07.241Z,1.77
2023-01-20T00:43:29.243Z,1.77
2023-01-20T00:48:50.929Z,1.45
2023-01-20T00:54:12.696Z,1.83
2023-01-20T00:59:34.494Z,2.97
2023-01-20T01:04:56.203Z,1.83
2023-01-20T01:10:18.115Z,3.65
2023-01-20T01:15:39.827Z,2.35
2023-01-20T01:21:09.987Z,2.85
2023-01-20T01:26:31.689Z,3.05
2023-01-20T01:31:53.437Z,2.05
2023-01-20T01:37:15.213Z,2.42
2023-01-20T01:42:37.205Z,3.30
2023-01-20T01:48:09.586Z,1.80
2023-01-20T01:53:37.162Z,2.03
2023-01-20T01:59:01.572Z,2.55
2023-01-20T02:04:25.588Z,2.88
2023-01-20T02:09:47.710Z,2.70
2023-01-20T02:15:09.905Z,2.15
2023-01-20T02:20:37.053Z,2.97
2023-01-20T02:26:07.992Z,2.63
2023-01-20T02:31:48.282Z,1.85
2023-01-20T02:37:17.032Z,2.92
2023-01-20T02:43:02.498Z,1.92
2023-01-20T02:48:44.456Z,3.10
2023-01-20T02:54:10.782Z,3.25
2023-01-20T02:59:37.831Z,2.72
2023-01-20T03:05:09.308Z,1.83
2023-01-20T03:10:33.802Z,2.00
2023-01-20T03:15:58.165Z,2.38
2023-01-20T03:21:20.145Z,2.58
2023-01-20T03:26:41.867Z,1.77
2023-01-20T03:32:07.558Z,3.15
2023-01-20T03:43:31.500Z,1.95
2023-01-20T03:49:04.422Z,2.08
2023-01-20T03:54:37.449Z,1.88
2023-01-20T04:00:00.325Z,1.95
2023-01-20T04:05:22.652Z,2.22
2023-01-20T04:10:47.282Z,1.55
2023-01-20T04:16:16.772Z,1.80
2023-01-20T04:21:43.827Z,1.85
2023-01-20T04:27:05.496Z,2.38
2023-01-20T04:32:27.225Z,1.85
2023-01-20T04:37:49.122Z,1.77
2023-01-20T04:43:12.223Z,1.70
2023-01-20T04:48:33.920Z,3.15
2023-01-20T04:53:59.537Z,2.25
2023-01-20T04:59:21.343Z,1.42
2023-01-20T05:04:43.192Z,2.17
2023-01-20T05:10:05.431Z,2.10
2023-01-20T05:15:28.093Z,2.25
2023-01-20T05:20:50.402Z,3.65
2023-01-20T05:26:12.155Z,1.77
2023-01-20T05:31:33.915Z,1.38
2023-01-20T05:36:55.701Z,1.70
2023-01-20T05:42:17.471Z,2.10
2023-01-20T05:47:39.316Z,3.08
2023-01-20T05:53:01.027Z,2.65
2023-01-20T05:58:23.045Z,2.15
2023-01-20T06:03:44.736Z,2.15
2023-01-20T06:09:06.964Z,1.67
2023-01-20T06:14:28.692Z,2.10
2023-01-20T06:19:50.474Z,2.65
2023-01-20T06:25:12.226Z,3.92
2023-01-20T06:30:34.529Z,9.30
2023-01-20T06:35:57.491Z,8.35
2023-01-20T06:41:20.784Z,10.07
2023-01-20T06:46:42.517Z,8.90
2023-01-20T06:52:04.280Z,5.82
2023-01-20T06:57:26.081Z,7.57
2023-01-20T07:02:49.485Z,6.95
2023-01-20T07:08:11.921Z,7.63
2023-01-20T07:13:33.687Z,6.30
2023-01-20T07:18:56.028Z,5.70
2023-01-20T07:24:18.118Z,3.47
2023-01-20T07:29:40.771Z,4.43
2023-01-20T07:35:02.547Z,4.47
2023-01-20T07:40:24.253Z,6.60
2023-01-20T07:45:46.177Z,3.75
2023-01-20T07:51:10.341Z,4.80
2023-01-20T07:56:32.125Z,2.45
2023-01-20T08:01:53.861Z,1.80
2023-01-20T08:07:15.596Z,3.97
2023-01-20T08:12:37.315Z,4.47
2023-01-20T08:17:59.827Z,3.63
2023-01-20T08:23:21.609Z,3.42
2023-01-20T08:28:43.504Z,2.58
2023-01-20T08:34:05.610Z,4.47
2023-01-20T08:39:27.484Z,5.35
2023-01-20T08:44:53.204Z,3.60
2023-01-20T08:50:15.766Z,7.22
2023-01-20T08:55:37.516Z,4.32
2023-01-20T09:00:59.883Z,8.10
2023-01-20T09:06:22.621Z,11.88
2023-01-20T09:11:51.515Z,5.32
2023-01-20T09:17:14.820Z,6.45
2023-01-20T09:22:36.528Z,6.55
2023-01-20T09:28:01.794Z,6.32
2023-01-20T09:33:23.533Z,8.02
2023-01-20T09:39:03.412Z,5.15
2023-01-20T09:44:45.479Z,3.63
2023-01-20T09:50:31.868Z,2.28
2023-01-20T09:55:58.020Z,2.75
2023-01-20T10:01:24.705Z,4.20
2023-01-20T10:06:49.090Z,3.35
2023-01-20T10:12:19.886Z,5.07
2023-01-20T10:17:47.394Z,4.25
2023-01-20T10:23:41.441Z,3.50
2023-01-20T10:29:06.765Z,3.67
2023-01-20T10:34:44.074Z,2.03
2023-01-20T10:40:24.442Z,2.08
2023-01-20T10:46:04.377Z,4.35
2023-01-20T10:51:34.880Z,2.95
2023-01-20T10:56:59.817Z,3.13
2023-01-20T11:02:29.249Z,4.67
2023-01-20T11:07:54.033Z,1.58
2023-01-20T11:13:15.718Z,2.47
2023-01-20T11:18:37.411Z,2.15
2023-01-20T11:24:00.184Z,3.05
2023-01-20T11:29:21.818Z,7.45
2023-01-20T11:34:49.809Z,4.68
2023-01-20T11:40:23.058Z,4.75
2023-01-20T11:45:44.803Z,4.75
2023-01-20T11:51:19.992Z,6.38
2023-01-20T11:56:44.608Z,7.10
2023-01-20T12:02:09.187Z,4.68
2023-01-20T12:07:45.673Z,4.07
2023-01-20T12:13:13.076Z,7.35
2023-01-20T12:18:45.392Z,4.80
2023-01-20T12:24:38.699Z,10.45
2023-01-20T12:30:16.556Z,8.75
2023-01-20T12:35:52.202Z,4.03
2023-01-20T12:41:44.593Z,5.43
2023-01-20T12:47:27.888Z,8.27
2023-01-20T12:53:16.646Z,8.50
2023-01-20T12:58:48.389Z,5.63
2023-01-20T13:04:48.929Z,12.88
2023-01-20T13:10:13.758Z,12.25
2023-01-20T13:15:59.317Z,8.20
2023-01-20T13:21:21.462Z,13.65
2023-01-20T13:26:43.446Z,14.98
2023-01-20T13:32:28.222Z,12.57
2023-01-20T13:38:01.538Z,10.85
2023-01-20T13:43:23.993Z,10.85
2023-01-20T13:49:13.425Z,10.30
2023-01-20T13:54:42.295Z,8.77
2023-01-20T14:00:12.453Z,5.28
2023-01-20T14:05:34.197Z,10.45
2023-01-20T14:11:26.440Z,7.03
2023-01-20T14:16:48.485Z,8.20
2023-01-20T14:22:24.999Z,9.18
2023-01-20T14:27:46.704Z,10.55
2023-01-20T14:33:10.542Z,5.05
2023-01-20T14:38:55.503Z,6.22
2023-01-20T14:44:23.805Z,5.93
2023-01-20T14:49:48.704Z,6.55
2023-01-20T14:55:31.343Z,2.77
2023-01-20T15:00:59.855Z,2.80
2023-01-20T15:06:22.588Z,4.35
2023-01-20T15:11:46.075Z,6.95
2023-01-20T15:17:09.358Z,4.38
2023-01-20T15:22:31.179Z,11.15
2023-01-20T15:27:54.391Z,10.52
2023-01-20T15:33:16.349Z,12.90
2023-01-20T15:38:38.205Z,11.18
2023-01-20T15:43:59.931Z,8.13
2023-01-20T15:49:21.672Z,11.20
2023-01-20T15:54:43.416Z,9.38
2023-01-20T16:00:06.947Z,19.15
2023-01-20T16:05:28.717Z,15.43
2023-01-20T16:10:50.855Z,11.32
2023-01-20T16:16:19.090Z,29.73
2023-01-20T16:21:41.308Z,17.48
2023-01-20T16:27:04.581Z,21.33
2023-01-20T16:32:26.313Z,15.80
2023-01-20T16:37:48.357Z,23.25
2023-01-20T16:43:12.524Z,9.35
2023-01-20T16:48:34.374Z,16.33
2023-01-20T16:53:57.271Z,11.60
2023-01-20T16:59:19.111Z,15.13
2023-01-20T17:04:40.895Z,14.10
2023-01-20T17:10:02.797Z,15.27
2023-01-20T17:15:25.239Z,14.25
2023-01-20T17:20:46.936Z,11.73
2023-01-20T17:26:09.525Z,12.75
2023-01-20T17:31:35.703Z,11.57
2023-01-20T17:36:57.517Z,7.55
2023-01-20T17:42:19.417Z,7.25
2023-01-20T17:47:41.191Z,5.93
2023-01-20T17:53:03.006Z,7.03
2023-01-20T17:58:24.775Z,9.55
2023-01-20T18:03:48.721Z,2.75
2023-01-20T18:09:13.882Z,4.00
2023-01-20T18:14:35.573Z,4.50
2023-01-20T18:19:57.386Z,3.22
2023-01-20T18:25:19.263Z,1.77
2023-01-20T18:30:41.071Z,1.77
2023-01-20T18:36:03.255Z,3.22
2023-01-20T18:41:27.017Z,2.00
2023-01-20T18:46:48.951Z,6.72
2023-01-20T18:52:10.718Z,4.18
2023-01-20T18:57:32.449Z,3.45
2023-01-20T19:02:54.205Z,3.25
2023-01-20T19:08:15.928Z,9.23
2023-01-20T19:13:37.597Z,10.50
2023-01-20T19:19:03.849Z,10.07
2023-01-20T19:24:29.077Z,13.75
2023-01-20T19:29:50.754Z,4.68
2023-01-20T19:35:12.479Z,2.20
2023-01-20T19:40:34.241Z,6.70
2023-01-20T19:45:56.222Z,8.65
2023-01-20T19:51:19.945Z,10.48
2023-01-20T19:56:41.868Z,7.07
2023-01-20T20:02:03.607Z,7.00
2023-01-20T20:07:25.365Z,9.50
2023-01-20T20:12:47.028Z,5.88
2023-01-20T20:18:09.580Z,11.73
2023-01-20T20:23:31.414Z,15.27
2023-01-20T20:28:53.292Z,12.43
2023-01-20T20:34:18.047Z,7.68
2023-01-20T20:39:39.717Z,6.60
2023-01-20T20:45:01.416Z,11.40
2023-01-20T20:50:24.131Z,4.72
2023-01-20T20:55:46.183Z,5.20
2023-01-20T21:01:12.846Z,7.50
2023-01-20T21:06:34.629Z,6.07
2023-01-20T21:11:56.432Z,7.60
2023-01-20T21:17:18.220Z,2.97
2023-01-20T21:22:40.004Z,3.90
2023-01-20T21:28:01.730Z,7.97
2023-01-20T21:33:23.569Z,10.27
2023-01-20T21:38:46.732Z,9.23
2023-01-20T21:44:31.648Z,21.17
2023-01-20T21:50:11.673Z,7.10
2023-01-20T21:55:33.411Z,16.92
2023-01-20T22:00:55.763Z,7.57
2023-01-20T22:06:17.439Z,6.82
2023-01-20T22:11:39.294Z,6.32
2023-01-20T22:17:01.115Z,6.68
2023-01-20T22:22:23.655Z,5.35
2023-01-20T22:27:48.256Z,10.93
2023-01-20T22:33:10.084Z,7.80
2023-01-20T22:38:31.978Z,5.18
2023-01-20T22:43:53.889Z,2.97
2023-01-20T22:49:15.655Z,3.55
2023-01-20T22:54:37.379Z,4.30
2023-01-20T22:59:59.109Z,5.28
2023-01-20T23:05:20.832Z,2.88
2023-01-20T23:10:48.866Z,3.40
2023-01-20T23:16:15.004Z,3.25
2023-01-20T23:21:36.723Z,4.32
2023-01-20T23:26:58.408Z,3.40
2023-01-20T23:32:20.859Z,2.95
2023-01-20T23:37:42.660Z,5.18
2023-01-20T23:43:04.402Z,4.60
2023-01-20T23:48:26.900Z,3.25
2023-01-20T23:53:48.734Z,3.97
2023-01-20T23:59:10.485Z,6.47
